sensor_id;sensor_type;location;lat;lon;timestamp;P1;durP1;ratioP1;P2;durP2;ratioP2
24159;SDS011;62385;41.594;23.808;2022-11-15T00:00:29;2.97;;;2.73;;
24159;SDS011;62385;41.594;23.808;2022-11-15T00:03:14;1.90;;;0.83;;
24159;SDS011;62385;41.594;23.808;2022-11-15T00:06:03;1.43;;;1.33;;
24159;SDS011;62385;41.594;23.808;2022-11-15T00:08:49;3.57;;;1.87;;
24159;SDS011;62385;41.594;23.808;2022-11-15T00:11:33;3.13;;;1.40;;
24159;SDS011;62385;41.594;23.808;2022-11-15T00:14:17;3.57;;;1.80;;
24159;SDS011;62385;41.594;23.808;2022-11-15T00:17:01;1.30;;;1.00;;
24159;SDS011;62385;41.594;23.808;2022-11-15T00:19:45;3.10;;;1.90;;
24159;SDS011;62385;41.594;23.808;2022-11-15T00:22:32;4.40;;;2.33;;
24159;SDS011;62385;41.594;23.808;2022-11-15T00:25:17;1.17;;;1.00;;
24159;SDS011;62385;41.594;23.808;2022-11-15T00:28:01;2.77;;;1.13;;
24159;SDS011;62385;41.594;23.808;2022-11-15T00:30:46;2.63;;;1.67;;
24159;SDS011;62385;41.594;23.808;2022-11-15T00:33:30;4.50;;;2.53;;
24159;SDS011;62385;41.594;23.808;2022-11-15T00:36:15;3.67;;;1.93;;
24159;SDS011;62385;41.594;23.808;2022-11-15T00:38:59;3.70;;;2.80;;
24159;SDS011;62385;41.594;23.808;2022-11-15T00:41:44;7.80;;;2.87;;
24159;SDS011;62385;41.594;23.808;2022-11-15T00:44:28;1.87;;;1.77;;
24159;SDS011;62385;41.594;23.808;2022-11-15T00:47:12;2.77;;;2.10;;
24159;SDS011;62385;41.594;23.808;2022-11-15T00:49:57;5.57;;;3.57;;
24159;SDS011;62385;41.594;23.808;2022-11-15T00:52:42;5.00;;;1.80;;
24159;SDS011;62385;41.594;23.808;2022-11-15T00:55:27;3.17;;;2.80;;
24159;SDS011;62385;41.594;23.808;2022-11-15T00:58:11;5.80;;;3.17;;
24159;SDS011;62385;41.594;23.808;2022-11-15T01:00:55;14.13;;;7.03;;
24159;SDS011;62385;41.594;23.808;2022-11-15T01:03:39;7.87;;;5.03;;
24159;SDS011;62385;41.594;23.808;2022-11-15T01:06:25;7.20;;;3.87;;
24159;SDS011;62385;41.594;23.808;2022-11-15T01:09:09;3.70;;;2.40;;
24159;SDS011;62385;41.594;23.808;2022-11-15T01:11:54;3.37;;;2.77;;
24159;SDS011;62385;41.594;23.808;2022-11-15T01:14:38;3.57;;;3.13;;
24159;SDS011;62385;41.594;23.808;2022-11-15T01:17:22;1.93;;;1.67;;
24159;SDS011;62385;41.594;23.808;2022-11-15T01:20:08;2.93;;;1.03;;
24159;SDS011;62385;41.594;23.808;2022-11-15T01:22:53;2.70;;;1.53;;
24159;SDS011;62385;41.594;23.808;2022-11-15T01:25:37;5.00;;;3.37;;
24159;SDS011;62385;41.594;23.808;2022-11-15T01:28:22;1.70;;;1.53;;
24159;SDS011;62385;41.594;23.808;2022-11-15T01:31:09;1.03;;;0.77;;
24159;SDS011;62385;41.594;23.808;2022-11-15T01:33:56;4.80;;;2.37;;
24159;SDS011;62385;41.594;23.808;2022-11-15T01:36:40;3.90;;;2.43;;
24159;SDS011;62385;41.594;23.808;2022-11-15T01:39:26;7.27;;;1.87;;
24159;SDS011;62385;41.594;23.808;2022-11-15T01:42:13;6.60;;;1.90;;
24159;SDS011;62385;41.594;23.808;2022-11-15T01:44:57;2.73;;;1.87;;
24159;SDS011;62385;41.594;23.808;2022-11-15T01:47:48;0.97;;;0.97;;
24159;SDS011;62385;41.594;23.808;2022-11-15T01:50:37;3.90;;;3.20;;
24159;SDS011;62385;41.594;23.808;2022-11-15T01:53:22;3.53;;;3.07;;
24159;SDS011;62385;41.594;23.808;2022-11-15T01:56:10;1.40;;;0.93;;
24159;SDS011;62385;41.594;23.808;2022-11-15T01:58:57;6.13;;;2.40;;
24159;SDS011;62385;41.594;23.808;2022-11-15T02:01:45;5.47;;;2.00;;
24159;SDS011;62385;41.594;23.808;2022-11-15T02:04:40;2.57;;;2.37;;
24159;SDS011;62385;41.594;23.808;2022-11-15T02:07:26;3.43;;;2.30;;
24159;SDS011;62385;41.594;23.808;2022-11-15T02:10:16;3.80;;;2.67;;
24159;SDS011;62385;41.594;23.808;2022-11-15T02:13:02;1.00;;;0.90;;
24159;SDS011;62385;41.594;23.808;2022-11-15T02:18:48;5.83;;;2.40;;
24159;SDS011;62385;41.594;23.808;2022-11-15T02:34:44;0.80;;;0.80;;
24159;SDS011;62385;41.594;23.808;2022-11-15T02:37:43;2.33;;;2.07;;
24159;SDS011;62385;41.594;23.808;2022-11-15T02:47:10;5.43;;;2.73;;
24159;SDS011;62385;41.594;23.808;2022-11-15T02:50:00;6.53;;;3.47;;
24159;SDS011;62385;41.594;23.808;2022-11-15T02:52:48;10.37;;;2.53;;
24159;SDS011;62385;41.594;23.808;2022-11-15T02:55:37;5.67;;;2.70;;
24159;SDS011;62385;41.594;23.808;2022-11-15T03:07:29;3.83;;;3.43;;
24159;SDS011;62385;41.594;23.808;2022-11-15T03:10:35;6.57;;;3.77;;
24159;SDS011;62385;41.594;23.808;2022-11-15T03:13:27;1.50;;;1.40;;
24159;SDS011;62385;41.594;23.808;2022-11-15T03:22:18;4.93;;;3.93;;
24159;SDS011;62385;41.594;23.808;2022-11-15T03:25:05;9.77;;;4.30;;
24159;SDS011;62385;41.594;23.808;2022-11-15T03:27:53;5.13;;;3.00;;
24159;SDS011;62385;41.594;23.808;2022-11-15T03:30:41;3.43;;;2.43;;
24159;SDS011;62385;41.594;23.808;2022-11-15T03:33:27;5.33;;;3.20;;
24159;SDS011;62385;41.594;23.808;2022-11-15T03:36:13;11.23;;;4.77;;
24159;SDS011;62385;41.594;23.808;2022-11-15T03:38:59;5.70;;;2.97;;
24159;SDS011;62385;41.594;23.808;2022-11-15T03:41:56;1.27;;;1.00;;
24159;SDS011;62385;41.594;23.808;2022-11-15T03:45:14;2.90;;;1.23;;
24159;SDS011;62385;41.594;23.808;2022-11-15T03:48:01;3.13;;;1.63;;
24159;SDS011;62385;41.594;23.808;2022-11-15T03:50:52;2.80;;;1.33;;
24159;SDS011;62385;41.594;23.808;2022-11-15T03:53:37;1.90;;;1.80;;
24159;SDS011;62385;41.594;23.808;2022-11-15T03:56:21;1.90;;;1.57;;
24159;SDS011;62385;41.594;23.808;2022-11-15T03:59:06;2.53;;;2.33;;
24159;SDS011;62385;41.594;23.808;2022-11-15T04:01:50;5.37;;;1.47;;
24159;SDS011;62385;41.594;23.808;2022-11-15T04:04:34;5.50;;;3.70;;
24159;SDS011;62385;41.594;23.808;2022-11-15T04:07:18;6.83;;;3.73;;
24159;SDS011;62385;41.594;23.808;2022-11-15T04:10:02;4.07;;;2.33;;
24159;SDS011;62385;41.594;23.808;2022-11-15T04:12:48;5.70;;;2.00;;
24159;SDS011;62385;41.594;23.808;2022-11-15T04:15:32;3.37;;;2.80;;
24159;SDS011;62385;41.594;23.808;2022-11-15T04:18:16;4.23;;;3.37;;
24159;SDS011;62385;41.594;23.808;2022-11-15T04:21:00;6.17;;;2.33;;
24159;SDS011;62385;41.594;23.808;2022-11-15T04:24:04;6.80;;;3.63;;
24159;SDS011;62385;41.594;23.808;2022-11-15T04:26:48;2.97;;;2.67;;
24159;SDS011;62385;41.594;23.808;2022-11-15T04:29:33;1.57;;;1.47;;
24159;SDS011;62385;41.594;23.808;2022-11-15T04:32:20;3.03;;;1.20;;
24159;SDS011;62385;41.594;23.808;2022-11-15T04:35:05;3.23;;;1.67;;
24159;SDS011;62385;41.594;23.808;2022-11-15T04:37:49;5.83;;;4.30;;
24159;SDS011;62385;41.594;23.808;2022-11-15T04:40:33;3.20;;;2.43;;
24159;SDS011;62385;41.594;23.808;2022-11-15T04:43:18;5.63;;;1.87;;
24159;SDS011;62385;41.594;23.808;2022-11-15T04:46:02;4.70;;;2.53;;
24159;SDS011;62385;41.594;23.808;2022-11-15T04:48:46;7.10;;;2.90;;
24159;SDS011;62385;41.594;23.808;2022-11-15T04:51:30;10.37;;;3.33;;
24159;SDS011;62385;41.594;23.808;2022-11-15T04:54:13;7.57;;;4.90;;
24159;SDS011;62385;41.594;23.808;2022-11-15T04:56:58;2.53;;;2.33;;
24159;SDS011;62385;41.594;23.808;2022-11-15T04:59:43;3.73;;;2.37;;
24159;SDS011;62385;41.594;23.808;2022-11-15T05:02:29;4.40;;;3.07;;
24159;SDS011;62385;41.594;23.808;2022-11-15T05:05:34;5.13;;;3.17;;
24159;SDS011;62385;41.594;23.808;2022-11-15T05:08:18;2.70;;;2.50;;
24159;SDS011;62385;41.594;23.808;2022-11-15T05:11:03;4.03;;;3.13;;
24159;SDS011;62385;41.594;23.808;2022-11-15T05:13:48;6.33;;;3.17;;
24159;SDS011;62385;41.594;23.808;2022-11-15T05:16:34;3.40;;;2.50;;
24159;SDS011;62385;41.594;23.808;2022-11-15T05:19:18;3.10;;;2.80;;
24159;SDS011;62385;41.594;23.808;2022-11-15T05:22:02;12.10;;;3.27;;
24159;SDS011;62385;41.594;23.808;2022-11-15T05:24:46;6.33;;;4.10;;
24159;SDS011;62385;41.594;23.808;2022-11-15T05:27:30;6.13;;;4.67;;
24159;SDS011;62385;41.594;23.808;2022-11-15T05:30:15;10.77;;;4.93;;
24159;SDS011;62385;41.594;23.808;2022-11-15T05:33:00;4.10;;;3.07;;
24159;SDS011;62385;41.594;23.808;2022-11-15T05:35:46;7.40;;;2.73;;
24159;SDS011;62385;41.594;23.808;2022-11-15T05:38:36;3.10;;;2.80;;
24159;SDS011;62385;41.594;23.808;2022-11-15T05:41:25;9.07;;;4.20;;
24159;SDS011;62385;41.594;23.808;2022-11-15T05:44:14;5.63;;;2.80;;
24159;SDS011;62385;41.594;23.808;2022-11-15T05:47:03;3.87;;;2.70;;
24159;SDS011;62385;41.594;23.808;2022-11-15T05:49:49;4.93;;;3.50;;
24159;SDS011;62385;41.594;23.808;2022-11-15T05:52:37;1.50;;;1.40;;
24159;SDS011;62385;41.594;23.808;2022-11-15T05:55:22;4.93;;;3.00;;
24159;SDS011;62385;41.594;23.808;2022-11-15T05:58:06;5.37;;;3.50;;
24159;SDS011;62385;41.594;23.808;2022-11-15T06:00:50;4.13;;;2.53;;
24159;SDS011;62385;41.594;23.808;2022-11-15T06:03:35;2.63;;;2.37;;
24159;SDS011;62385;41.594;23.808;2022-11-15T06:06:21;3.57;;;3.17;;
24159;SDS011;62385;41.594;23.808;2022-11-15T06:09:05;7.33;;;3.27;;
24159;SDS011;62385;41.594;23.808;2022-11-15T06:11:49;1.73;;;1.63;;
24159;SDS011;62385;41.594;23.808;2022-11-15T06:14:33;14.57;;;2.27;;
24159;SDS011;62385;41.594;23.808;2022-11-15T06:17:17;0.53;;;0.53;;
24159;SDS011;62385;41.594;23.808;2022-11-15T06:20:01;3.27;;;1.73;;
24159;SDS011;62385;41.594;23.808;2022-11-15T06:22:45;5.80;;;1.37;;
24159;SDS011;62385;41.594;23.808;2022-11-15T06:25:29;2.50;;;2.07;;
24159;SDS011;62385;41.594;23.808;2022-11-15T06:28:14;3.90;;;2.53;;
24159;SDS011;62385;41.594;23.808;2022-11-15T06:31:02;5.20;;;3.23;;
24159;SDS011;62385;41.594;23.808;2022-11-15T06:33:47;5.17;;;3.60;;
24159;SDS011;62385;41.594;23.808;2022-11-15T06:36:33;2.00;;;1.53;;
24159;SDS011;62385;41.594;23.808;2022-11-15T06:39:19;2.90;;;1.47;;
24159;SDS011;62385;41.594;23.808;2022-11-15T06:42:04;6.23;;;2.90;;
24159;SDS011;62385;41.594;23.808;2022-11-15T06:44:47;4.47;;;3.37;;
24159;SDS011;62385;41.594;23.808;2022-11-15T06:47:31;3.00;;;1.97;;
24159;SDS011;62385;41.594;23.808;2022-11-15T06:50:15;2.57;;;1.90;;
24159;SDS011;62385;41.594;23.808;2022-11-15T06:53:03;3.87;;;1.93;;
24159;SDS011;62385;41.594;23.808;2022-11-15T06:55:47;4.43;;;3.20;;
24159;SDS011;62385;41.594;23.808;2022-11-15T06:58:31;1.70;;;1.50;;
24159;SDS011;62385;41.594;23.808;2022-11-15T07:01:16;4.00;;;2.07;;
24159;SDS011;62385;41.594;23.808;2022-11-15T07:04:00;8.33;;;3.63;;
24159;SDS011;62385;41.594;23.808;2022-11-15T07:06:49;2.80;;;1.77;;
24159;SDS011;62385;41.594;23.808;2022-11-15T07:09:33;5.83;;;3.30;;
24159;SDS011;62385;41.594;23.808;2022-11-15T07:12:17;3.37;;;2.63;;
24159;SDS011;62385;41.594;23.808;2022-11-15T07:15:01;4.73;;;3.53;;
24159;SDS011;62385;41.594;23.808;2022-11-15T07:17:46;5.77;;;3.03;;
24159;SDS011;62385;41.594;23.808;2022-11-15T07:20:30;2.40;;;1.87;;
24159;SDS011;62385;41.594;23.808;2022-11-15T07:23:14;4.97;;;4.13;;
24159;SDS011;62385;41.594;23.808;2022-11-15T07:25:58;5.80;;;2.10;;
24159;SDS011;62385;41.594;23.808;2022-11-15T07:28:42;6.03;;;3.70;;
24159;SDS011;62385;41.594;23.808;2022-11-15T07:31:26;1.80;;;1.53;;
24159;SDS011;62385;41.594;23.808;2022-11-15T07:34:11;5.97;;;2.20;;
24159;SDS011;62385;41.594;23.808;2022-11-15T07:36:57;5.77;;;3.03;;
24159;SDS011;62385;41.594;23.808;2022-11-15T07:39:40;5.70;;;2.73;;
24159;SDS011;62385;41.594;23.808;2022-11-15T07:42:25;4.83;;;3.20;;
24159;SDS011;62385;41.594;23.808;2022-11-15T07:45:28;8.63;;;6.07;;
24159;SDS011;62385;41.594;23.808;2022-11-15T07:48:13;32.47;;;12.40;;
24159;SDS011;62385;41.594;23.808;2022-11-15T07:50:57;21.57;;;8.80;;
24159;SDS011;62385;41.594;23.808;2022-11-15T07:53:42;14.30;;;7.40;;
24159;SDS011;62385;41.594;23.808;2022-11-15T07:56:26;3.77;;;3.00;;
24159;SDS011;62385;41.594;23.808;2022-11-15T07:59:12;8.53;;;3.73;;
24159;SDS011;62385;41.594;23.808;2022-11-15T08:01:55;9.90;;;5.67;;
24159;SDS011;62385;41.594;23.808;2022-11-15T08:04:40;5.97;;;4.30;;
24159;SDS011;62385;41.594;23.808;2022-11-15T08:07:24;17.27;;;6.37;;
24159;SDS011;62385;41.594;23.808;2022-11-15T08:10:08;13.87;;;6.17;;
24159;SDS011;62385;41.594;23.808;2022-11-15T08:12:56;15.23;;;8.47;;
24159;SDS011;62385;41.594;23.808;2022-11-15T08:15:46;11.77;;;7.33;;
24159;SDS011;62385;41.594;23.808;2022-11-15T08:18:30;10.40;;;4.33;;
24159;SDS011;62385;41.594;23.808;2022-11-15T08:21:17;9.37;;;3.93;;
24159;SDS011;62385;41.594;23.808;2022-11-15T08:24:02;7.97;;;4.13;;
24159;SDS011;62385;41.594;23.808;2022-11-15T08:26:47;4.70;;;3.63;;
24159;SDS011;62385;41.594;23.808;2022-11-15T08:29:31;5.80;;;4.27;;
24159;SDS011;62385;41.594;23.808;2022-11-15T08:32:15;10.07;;;4.67;;
24159;SDS011;62385;41.594;23.808;2022-11-15T08:34:59;6.67;;;4.80;;
24159;SDS011;62385;41.594;23.808;2022-11-15T08:37:43;8.87;;;4.73;;
24159;SDS011;62385;41.594;23.808;2022-11-15T08:40:27;7.90;;;5.20;;
24159;SDS011;62385;41.594;23.808;2022-11-15T08:43:13;6.47;;;5.80;;
24159;SDS011;62385;41.594;23.808;2022-11-15T08:45:57;13.53;;;4.30;;
24159;SDS011;62385;41.594;23.808;2022-11-15T08:48:42;12.10;;;7.20;;
24159;SDS011;62385;41.594;23.808;2022-11-15T08:51:26;12.33;;;5.40;;
24159;SDS011;62385;41.594;23.808;2022-11-15T08:54:11;3.17;;;2.93;;
24159;SDS011;62385;41.594;23.808;2022-11-15T08:56:54;6.30;;;2.63;;
24159;SDS011;62385;41.594;23.808;2022-11-15T08:59:39;4.53;;;1.87;;
24159;SDS011;62385;41.594;23.808;2022-11-15T09:02:23;2.47;;;2.23;;
24159;SDS011;62385;41.594;23.808;2022-11-15T09:05:09;9.17;;;4.60;;
24159;SDS011;62385;41.594;23.808;2022-11-15T09:07:53;6.37;;;2.90;;
24159;SDS011;62385;41.594;23.808;2022-11-15T09:10:38;4.20;;;2.10;;
24159;SDS011;62385;41.594;23.808;2022-11-15T09:13:22;5.10;;;2.23;;
24159;SDS011;62385;41.594;23.808;2022-11-15T09:16:07;3.27;;;2.70;;
24159;SDS011;62385;41.594;23.808;2022-11-15T09:18:52;4.90;;;2.73;;
24159;SDS011;62385;41.594;23.808;2022-11-15T09:21:37;4.63;;;1.80;;
24159;SDS011;62385;41.594;23.808;2022-11-15T09:24:21;24.37;;;2.33;;
24159;SDS011;62385;41.594;23.808;2022-11-15T09:27:07;5.70;;;4.33;;
24159;SDS011;62385;41.594;23.808;2022-11-15T09:29:50;4.73;;;3.60;;
24159;SDS011;62385;41.594;23.808;2022-11-15T09:32:35;4.27;;;2.33;;
24159;SDS011;62385;41.594;23.808;2022-11-15T09:35:20;1.60;;;1.00;;
24159;SDS011;62385;41.594;23.808;2022-11-15T09:38:04;7.80;;;2.77;;
24159;SDS011;62385;41.594;23.808;2022-11-15T09:40:51;2.50;;;2.00;;
24159;SDS011;62385;41.594;23.808;2022-11-15T09:49:18;4.80;;;3.10;;
24159;SDS011;62385;41.594;23.808;2022-11-15T09:51:57;3.53;;;1.63;;
24159;SDS011;62385;41.594;23.808;2022-11-15T09:59:50;5.67;;;2.20;;
24159;SDS011;62385;41.594;23.808;2022-11-15T10:02:46;4.20;;;2.70;;
24159;SDS011;62385;41.594;23.808;2022-11-15T10:05:20;5.33;;;2.50;;
24159;SDS011;62385;41.594;23.808;2022-11-15T10:10:17;2.83;;;1.57;;
24159;SDS011;62385;41.594;23.808;2022-11-15T10:12:57;4.57;;;2.13;;
24159;SDS011;62385;41.594;23.808;2022-11-15T10:15:24;3.10;;;2.17;;
24159;SDS011;62385;41.594;23.808;2022-11-15T10:22:47;3.33;;;2.00;;
24159;SDS011;62385;41.594;23.808;2022-11-15T10:25:21;3.53;;;2.60;;
24159;SDS011;62385;41.594;23.808;2022-11-15T10:30:39;6.07;;;2.70;;
24159;SDS011;62385;41.594;23.808;2022-11-15T10:33:32;2.73;;;2.00;;
24159;SDS011;62385;41.594;23.808;2022-11-15T10:36:17;3.77;;;2.17;;
24159;SDS011;62385;41.594;23.808;2022-11-15T10:41:14;4.17;;;1.77;;
24159;SDS011;62385;41.594;23.808;2022-11-15T10:43:41;4.07;;;1.83;;
24159;SDS011;62385;41.594;23.808;2022-11-15T10:46:16;5.87;;;3.27;;
24159;SDS011;62385;41.594;23.808;2022-11-15T10:48:45;1.37;;;1.27;;
24159;SDS011;62385;41.594;23.808;2022-11-15T10:51:19;2.60;;;1.37;;
24159;SDS011;62385;41.594;23.808;2022-11-15T10:53:53;4.60;;;2.57;;
24159;SDS011;62385;41.594;23.808;2022-11-15T10:56:21;2.03;;;1.33;;
24159;SDS011;62385;41.594;23.808;2022-11-15T10:58:55;3.70;;;1.97;;
24159;SDS011;62385;41.594;23.808;2022-11-15T11:01:23;4.07;;;2.13;;
24159;SDS011;62385;41.594;23.808;2022-11-15T11:04:01;2.90;;;1.80;;
24159;SDS011;62385;41.594;23.808;2022-11-15T11:06:32;5.80;;;2.53;;
24159;SDS011;62385;41.594;23.808;2022-11-15T11:09:31;3.63;;;1.50;;
24159;SDS011;62385;41.594;23.808;2022-11-15T11:11:58;3.80;;;2.13;;
24159;SDS011;62385;41.594;23.808;2022-11-15T11:14:29;2.87;;;2.60;;
24159;SDS011;62385;41.594;23.808;2022-11-15T11:23:27;1.67;;;1.58;;
24159;SDS011;62385;41.594;23.808;2022-11-15T11:29:21;1.97;;;1.20;;
24159;SDS011;62385;41.594;23.808;2022-11-15T11:38:03;3.10;;;2.88;;
24159;SDS011;62385;41.594;23.808;2022-11-15T11:48:48;6.32;;;1.90;;
24159;SDS011;62385;41.594;23.808;2022-11-15T11:51:33;3.13;;;1.77;;
24159;SDS011;62385;41.594;23.808;2022-11-15T11:54:06;3.00;;;2.15;;
24159;SDS011;62385;41.594;23.808;2022-11-15T11:57:29;4.65;;;1.73;;
24159;SDS011;62385;41.594;23.808;2022-11-15T12:00:17;1.83;;;1.25;;
24159;SDS011;62385;41.594;23.808;2022-11-15T12:05:57;4.45;;;2.10;;
24159;SDS011;62385;41.594;23.808;2022-11-15T12:11:17;3.17;;;1.48;;
24159;SDS011;62385;41.594;23.808;2022-11-15T12:13:44;3.95;;;2.05;;
24159;SDS011;62385;41.594;23.808;2022-11-15T12:16:21;4.22;;;2.25;;
24159;SDS011;62385;41.594;23.808;2022-11-15T12:19:02;4.05;;;1.38;;
24159;SDS011;62385;41.594;23.808;2022-11-15T12:21:41;3.45;;;1.73;;
24159;SDS011;62385;41.594;23.808;2022-11-15T12:26:41;4.25;;;1.85;;
24159;SDS011;62385;41.594;23.808;2022-11-15T12:29:27;3.63;;;2.25;;
24159;SDS011;62385;41.594;23.808;2022-11-15T12:31:58;3.20;;;1.92;;
24159;SDS011;62385;41.594;23.808;2022-11-15T12:37:00;4.30;;;1.70;;
24159;SDS011;62385;41.594;23.808;2022-11-15T12:45:30;1.30;;;0.90;;
24159;SDS011;62385;41.594;23.808;2022-11-15T12:50:59;2.42;;;1.60;;
24159;SDS011;62385;41.594;23.808;2022-11-15T12:53:43;3.22;;;2.15;;
24159;SDS011;62385;41.594;23.808;2022-11-15T13:12:47;2.80;;;1.42;;
24159;SDS011;62385;41.594;23.808;2022-11-15T13:15:00;6.07;;;1.70;;
24159;SDS011;62385;41.594;23.808;2022-11-15T13:17:27;2.30;;;1.50;;
24159;SDS011;62385;41.594;23.808;2022-11-15T13:25:16;3.28;;;1.80;;
24159;SDS011;62385;41.594;23.808;2022-11-15T13:27:47;2.97;;;2.33;;
24159;SDS011;62385;41.594;23.808;2022-11-15T13:30:18;2.55;;;1.75;;
24159;SDS011;62385;41.594;23.808;2022-11-15T13:32:46;1.88;;;1.77;;
24159;SDS011;62385;41.594;23.808;2022-11-15T13:35:23;3.20;;;1.63;;
24159;SDS011;62385;41.594;23.808;2022-11-15T13:37:50;2.50;;;1.27;;
24159;SDS011;62385;41.594;23.808;2022-11-15T13:40:22;2.65;;;1.55;;
24159;SDS011;62385;41.594;23.808;2022-11-15T13:42:48;3.17;;;2.08;;
24159;SDS011;62385;41.594;23.808;2022-11-15T13:45:15;4.25;;;1.63;;
24159;SDS011;62385;41.594;23.808;2022-11-15T13:47:43;2.92;;;2.08;;
24159;SDS011;62385;41.594;23.808;2022-11-15T13:50:12;2.65;;;1.77;;
24159;SDS011;62385;41.594;23.808;2022-11-15T13:52:39;2.28;;;1.63;;
24159;SDS011;62385;41.594;23.808;2022-11-15T13:55:10;4.35;;;2.00;;
24159;SDS011;62385;41.594;23.808;2022-11-15T14:02:48;4.47;;;1.85;;
24159;SDS011;62385;41.594;23.808;2022-11-15T14:05:17;3.63;;;2.13;;
24159;SDS011;62385;41.594;23.808;2022-11-15T14:07:54;13.15;;;2.28;;
24159;SDS011;62385;41.594;23.808;2022-11-15T14:10:47;2.95;;;1.60;;
24159;SDS011;62385;41.594;23.808;2022-11-15T14:13:28;4.00;;;2.00;;
24159;SDS011;62385;41.594;23.808;2022-11-15T14:18:46;7.95;;;2.85;;
24159;SDS011;62385;41.594;23.808;2022-11-15T14:21:16;2.33;;;2.13;;
24159;SDS011;62385;41.594;23.808;2022-11-15T14:23:43;4.47;;;2.03;;
24159;SDS011;62385;41.594;23.808;2022-11-15T14:26:29;3.28;;;2.58;;
24159;SDS011;62385;41.594;23.808;2022-11-15T14:28:57;3.08;;;2.15;;
24159;SDS011;62385;41.594;23.808;2022-11-15T14:31:53;5.43;;;2.45;;
24159;SDS011;62385;41.594;23.808;2022-11-15T14:34:31;4.20;;;2.67;;
24159;SDS011;62385;41.594;23.808;2022-11-15T14:36:57;3.13;;;1.65;;
24159;SDS011;62385;41.594;23.808;2022-11-15T14:39:23;5.32;;;3.17;;
24159;SDS011;62385;41.594;23.808;2022-11-15T14:41:50;4.55;;;2.92;;
24159;SDS011;62385;41.594;23.808;2022-11-15T14:44:17;3.33;;;1.92;;
24159;SDS011;62385;41.594;23.808;2022-11-15T14:46:43;3.25;;;2.15;;
24159;SDS011;62385;41.594;23.808;2022-11-15T14:49:10;7.70;;;2.95;;
24159;SDS011;62385;41.594;23.808;2022-11-15T14:51:35;5.35;;;3.53;;
24159;SDS011;62385;41.594;23.808;2022-11-15T14:54:01;10.20;;;4.65;;
24159;SDS011;62385;41.594;23.808;2022-11-15T14:56:26;17.63;;;6.93;;
24159;SDS011;62385;41.594;23.808;2022-11-15T14:58:53;9.25;;;4.53;;
24159;SDS011;62385;41.594;23.808;2022-11-15T15:01:23;5.43;;;4.30;;
24159;SDS011;62385;41.594;23.808;2022-11-15T15:03:51;7.55;;;3.65;;
24159;SDS011;62385;41.594;23.808;2022-11-15T15:06:17;9.98;;;3.95;;
24159;SDS011;62385;41.594;23.808;2022-11-15T15:08:43;5.50;;;2.60;;
24159;SDS011;62385;41.594;23.808;2022-11-15T15:11:10;10.10;;;5.70;;
24159;SDS011;62385;41.594;23.808;2022-11-15T15:13:40;11.95;;;4.38;;
24159;SDS011;62385;41.594;23.808;2022-11-15T15:16:06;6.75;;;4.22;;
24159;SDS011;62385;41.594;23.808;2022-11-15T15:18:33;15.87;;;4.30;;
24159;SDS011;62385;41.594;23.808;2022-11-15T15:20:58;12.05;;;4.97;;
24159;SDS011;62385;41.594;23.808;2022-11-15T15:23:28;7.80;;;3.85;;
24159;SDS011;62385;41.594;23.808;2022-11-15T15:25:56;7.40;;;4.33;;
24159;SDS011;62385;41.594;23.808;2022-11-15T15:28:22;6.23;;;3.80;;
24159;SDS011;62385;41.594;23.808;2022-11-15T15:30:48;6.20;;;3.97;;
24159;SDS011;62385;41.594;23.808;2022-11-15T15:33:15;12.10;;;5.80;;
24159;SDS011;62385;41.594;23.808;2022-11-15T15:35:41;9.73;;;5.73;;
24159;SDS011;62385;41.594;23.808;2022-11-15T15:38:10;7.87;;;4.43;;
24159;SDS011;62385;41.594;23.808;2022-11-15T15:40:38;13.60;;;7.33;;
24159;SDS011;62385;41.594;23.808;2022-11-15T15:43:03;9.30;;;5.50;;
24159;SDS011;62385;41.594;23.808;2022-11-15T15:45:29;9.73;;;6.00;;
24159;SDS011;62385;41.594;23.808;2022-11-15T15:47:55;9.63;;;5.50;;
24159;SDS011;62385;41.594;23.808;2022-11-15T15:52:51;5.30;;;3.60;;
24159;SDS011;62385;41.594;23.808;2022-11-15T15:55:18;10.63;;;5.13;;
24159;SDS011;62385;41.594;23.808;2022-11-15T15:57:44;6.53;;;5.17;;
24159;SDS011;62385;41.594;23.808;2022-11-15T16:00:11;24.33;;;7.17;;
24159;SDS011;62385;41.594;23.808;2022-11-15T16:02:38;9.43;;;4.27;;
24159;SDS011;62385;41.594;23.808;2022-11-15T16:05:04;4.77;;;3.20;;
24159;SDS011;62385;41.594;23.808;2022-11-15T16:07:30;9.63;;;6.07;;
24159;SDS011;62385;41.594;23.808;2022-11-15T16:09:56;10.53;;;4.87;;
24159;SDS011;62385;41.594;23.808;2022-11-15T16:12:34;7.70;;;4.93;;
24159;SDS011;62385;41.594;23.808;2022-11-15T16:15:00;7.73;;;4.80;;
24159;SDS011;62385;41.594;23.808;2022-11-15T16:17:30;9.10;;;4.00;;
24159;SDS011;62385;41.594;23.808;2022-11-15T16:19:58;12.50;;;5.90;;
24159;SDS011;62385;41.594;23.808;2022-11-15T16:22:24;6.80;;;5.53;;
24159;SDS011;62385;41.594;23.808;2022-11-15T16:24:51;9.37;;;5.20;;
24159;SDS011;62385;41.594;23.808;2022-11-15T16:27:17;12.47;;;7.13;;
24159;SDS011;62385;41.594;23.808;2022-11-15T16:29:45;11.97;;;5.33;;
24159;SDS011;62385;41.594;23.808;2022-11-15T16:32:11;8.83;;;5.13;;
24159;SDS011;62385;41.594;23.808;2022-11-15T16:34:38;15.30;;;7.97;;
24159;SDS011;62385;41.594;23.808;2022-11-15T16:37:04;10.07;;;4.83;;
24159;SDS011;62385;41.594;23.808;2022-11-15T16:39:31;10.07;;;5.10;;
24159;SDS011;62385;41.594;23.808;2022-11-15T16:41:57;8.00;;;6.47;;
24159;SDS011;62385;41.594;23.808;2022-11-15T16:44:23;4.60;;;3.60;;
24159;SDS011;62385;41.594;23.808;2022-11-15T16:46:50;9.37;;;5.20;;
24159;SDS011;62385;41.594;23.808;2022-11-15T16:49:18;15.70;;;5.63;;
24159;SDS011;62385;41.594;23.808;2022-11-15T16:51:45;13.77;;;7.37;;
24159;SDS011;62385;41.594;23.808;2022-11-15T16:54:11;13.97;;;7.63;;
24159;SDS011;62385;41.594;23.808;2022-11-15T16:56:37;7.50;;;4.20;;
24159;SDS011;62385;41.594;23.808;2022-11-15T16:59:03;6.33;;;4.87;;
24159;SDS011;62385;41.594;23.808;2022-11-15T17:01:30;8.20;;;3.43;;
24159;SDS011;62385;41.594;23.808;2022-11-15T17:03:57;9.37;;;5.73;;
24159;SDS011;62385;41.594;23.808;2022-11-15T17:06:24;15.17;;;8.73;;
24159;SDS011;62385;41.594;23.808;2022-11-15T17:08:50;10.87;;;6.20;;
24159;SDS011;62385;41.594;23.808;2022-11-15T17:11:17;15.37;;;7.97;;
24159;SDS011;62385;41.594;23.808;2022-11-15T17:13:45;16.47;;;8.00;;
24159;SDS011;62385;41.594;23.808;2022-11-15T17:16:15;10.93;;;6.63;;
24159;SDS011;62385;41.594;23.808;2022-11-15T17:18:42;6.60;;;5.30;;
24159;SDS011;62385;41.594;23.808;2022-11-15T17:21:14;8.97;;;5.27;;
24159;SDS011;62385;41.594;23.808;2022-11-15T17:23:41;9.57;;;5.37;;
24159;SDS011;62385;41.594;23.808;2022-11-15T17:26:08;9.23;;;6.23;;
24159;SDS011;62385;41.594;23.808;2022-11-15T17:28:37;7.03;;;5.50;;
24159;SDS011;62385;41.594;23.808;2022-11-15T17:31:08;5.97;;;5.27;;
24159;SDS011;62385;41.594;23.808;2022-11-15T17:33:36;5.80;;;3.47;;
24159;SDS011;62385;41.594;23.808;2022-11-15T17:36:04;9.43;;;4.60;;
24159;SDS011;62385;41.594;23.808;2022-11-15T17:38:31;5.67;;;3.97;;
24159;SDS011;62385;41.594;23.808;2022-11-15T17:43:29;9.70;;;3.90;;
24159;SDS011;62385;41.594;23.808;2022-11-15T17:45:57;11.30;;;6.63;;
24159;SDS011;62385;41.594;23.808;2022-11-15T17:48:23;7.57;;;4.53;;
24159;SDS011;62385;41.594;23.808;2022-11-15T17:50:56;10.20;;;3.90;;
24159;SDS011;62385;41.594;23.808;2022-11-15T17:53:22;4.47;;;3.53;;
24159;SDS011;62385;41.594;23.808;2022-11-15T17:55:48;9.43;;;5.17;;
24159;SDS011;62385;41.594;23.808;2022-11-15T17:58:14;13.67;;;4.17;;
24159;SDS011;62385;41.594;23.808;2022-11-15T18:00:43;7.93;;;3.87;;
24159;SDS011;62385;41.594;23.808;2022-11-15T18:03:11;13.40;;;7.03;;